createdAt,value
2018-04-17T00:02:17.416Z,45.00
2018-04-17T00:04:46.102Z,44.90
2018-04-17T00:07:14.841Z,44.70
2018-04-17T00:09:43.127Z,44.70
2018-04-17T00:12:11.451Z,45.00
2018-04-17T00:14:40.137Z,45.00
2018-04-17T00:17:08.461Z,45.00
2018-04-17T00:19:36.809Z,45.20
2018-04-17T00:22:05.098Z,45.30
2018-04-17T00:24:33.409Z,45.30
2018-04-17T00:27:03.834Z,45.50
2018-04-17T00:29:32.135Z,45.30
2018-04-17T00:32:00.843Z,45.20
2018-04-17T00:34:29.131Z,45.20
2018-04-17T00:36:57.425Z,45.30
2018-04-17T00:39:25.768Z,45.50
2018-04-17T00:41:54.096Z,45.50
2018-04-17T00:44:22.387Z,45.30
2018-04-17T00:46:50.689Z,45.60
2018-04-17T00:49:19.369Z,45.90
2018-04-17T00:51:48.054Z,45.90
2018-04-17T00:54:17.038Z,45.80
2018-04-17T00:56:45.751Z,45.90
2018-04-17T00:59:14.167Z,45.90
2018-04-17T01:01:42.490Z,45.90
2018-04-17T01:04:11.175Z,46.10
2018-04-17T01:06:39.894Z,45.90
2018-04-17T01:09:08.192Z,45.90
2018-04-17T01:11:36.582Z,45.80
2018-04-17T01:14:04.889Z,45.80
2018-04-17T01:16:33.584Z,45.80
2018-04-17T01:19:02.332Z,45.90
2018-04-17T01:21:30.671Z,45.90
2018-04-17T01:23:58.965Z,45.90
2018-04-17T01:26:27.254Z,46.10
2018-04-17T01:28:55.589Z,46.20
2018-04-17T01:31:23.884Z,46.20
2018-04-17T01:33:52.231Z,46.50
2018-04-17T01:36:20.933Z,46.80
2018-04-17T01:38:49.225Z,46.80
2018-04-17T01:41:17.571Z,47.70
2018-04-17T01:43:46.270Z,48.70
2018-04-17T01:46:14.594Z,48.70
2018-04-17T01:48:42.896Z,48.90
2018-04-17T01:51:11.173Z,48.90
2018-04-17T01:53:39.482Z,48.90
2018-04-17T01:56:07.783Z,48.40
2018-04-17T01:58:36.070Z,48.40
2018-04-17T02:01:04.378Z,48.40
2018-04-17T02:03:32.668Z,48.40
2018-04-17T02:06:01.351Z,48.60
2018-04-17T02:08:30.058Z,48.70
2018-04-17T02:10:58.356Z,48.70
2018-04-17T02:13:26.662Z,48.70
2018-04-17T02:15:54.966Z,48.90
2018-04-17T02:18:23.251Z,49.00
2018-04-17T02:20:51.930Z,49.20
2018-04-17T02:23:20.651Z,49.90
2018-04-17T02:25:48.980Z,49.90
2018-04-17T02:28:17.337Z,49.50
2018-04-17T02:30:45.687Z,49.30
2018-04-17T02:33:14.316Z,49.50
2018-04-17T02:35:42.617Z,49.50
2018-04-17T02:38:11.324Z,50.20
2018-04-17T02:40:39.615Z,50.20
2018-04-17T02:43:07.966Z,49.90
2018-04-17T02:45:36.686Z,49.60
2018-04-17T02:48:04.989Z,49.60
2018-04-17T02:50:33.285Z,49.60
2018-04-17T02:53:02.023Z,49.60
2018-04-17T02:55:30.318Z,49.60
2018-04-17T02:57:59.488Z,49.50
2018-04-17T03:00:27.801Z,49.80
2018-04-17T03:02:56.325Z,49.80
2018-04-17T03:05:25.003Z,50.70
2018-04-17T03:07:53.719Z,50.10
2018-04-17T03:10:22.035Z,50.10
2018-04-17T03:12:50.379Z,50.10
2018-04-17T03:15:18.697Z,50.10
2018-04-17T03:17:47.011Z,50.70
2018-04-17T03:20:17.037Z,50.40
2018-04-17T03:22:46.206Z,50.50
2018-04-17T03:25:14.554Z,49.90
2018-04-17T03:27:43.034Z,49.80
2018-04-17T03:30:11.680Z,49.60
2018-04-17T03:32:39.965Z,49.80
2018-04-17T03:35:08.249Z,50.10
2018-04-17T03:37:36.574Z,50.10
2018-04-17T03:40:05.265Z,49.80
2018-04-17T03:42:33.939Z,49.80
2018-04-17T03:45:02.251Z,49.80
2018-04-17T03:47:30.541Z,50.40
2018-04-17T03:49:59.717Z,49.90
2018-04-17T03:52:28.028Z,49.80
2018-04-17T03:54:56.741Z,50.10
2018-04-17T03:57:25.434Z,49.90
2018-04-17T03:59:53.834Z,50.50
2018-04-17T04:02:22.530Z,50.50
2018-04-17T04:04:51.080Z,50.40
2018-04-17T04:07:19.394Z,50.40
2018-04-17T04:09:47.709Z,49.90
2018-04-17T04:12:15.994Z,49.60
2018-04-17T04:14:44.316Z,49.60
2018-04-17T04:17:24.381Z,50.10
2018-04-17T04:20:04.594Z,50.20
2018-04-17T04:22:44.752Z,50.70
2018-04-17T04:25:24.964Z,51.10
2018-04-17T04:27:53.295Z,51.40
2018-04-17T04:30:21.563Z,50.80
2018-04-17T04:32:49.887Z,50.70
2018-04-17T04:35:18.170Z,50.40
2018-04-17T04:37:46.469Z,50.10
2018-04-17T04:40:15.064Z,50.20
2018-04-17T04:42:43.379Z,49.60
2018-04-17T04:45:11.653Z,49.30
2018-04-17T04:47:39.982Z,49.20
2018-04-17T04:50:08.278Z,49.20
2018-04-17T04:52:36.857Z,49.20
2018-04-17T04:55:05.188Z,48.70
2018-04-17T04:57:33.492Z,49.00
2018-04-17T05:00:01.807Z,48.70
2018-04-17T05:02:30.528Z,48.70
2018-04-17T05:04:58.819Z,48.70
2018-04-17T05:07:27.674Z,48.30
2018-04-17T05:09:55.975Z,48.30
2018-04-17T05:12:24.278Z,48.40
2018-04-17T05:14:52.549Z,48.30
2018-04-17T05:17:21.230Z,48.10
2018-04-17T05:19:49.657Z,48.00
2018-04-17T05:22:18.686Z,48.30
2018-04-17T05:24:47.219Z,48.30
2018-04-17T05:27:17.020Z,48.10
2018-04-17T05:29:46.535Z,48.10
2018-04-17T05:32:14.817Z,47.80
2018-04-17T05:34:43.105Z,47.80
2018-04-17T05:37:11.443Z,47.50
2018-04-17T05:39:39.729Z,47.30
2018-04-17T05:42:08.217Z,47.40
2018-04-17T05:44:37.299Z,47.30
2018-04-17T05:47:07.683Z,47.00
2018-04-17T05:49:35.996Z,47.00
2018-04-17T05:52:04.292Z,46.70
2018-04-17T05:54:32.580Z,46.10
2018-04-17T05:57:01.300Z,45.80
2018-04-17T05:59:29.943Z,45.80
2018-04-17T06:01:58.305Z,45.80
2018-04-17T06:04:26.755Z,45.30
2018-04-17T06:06:55.065Z,45.00
2018-04-17T06:09:23.365Z,45.00
2018-04-17T06:11:52.044Z,45.00
2018-04-17T06:14:20.392Z,45.00
2018-04-17T06:16:48.678Z,44.70
2018-04-17T06:19:16.964Z,44.70
2018-04-17T06:21:45.274Z,44.70
2018-04-17T06:24:13.610Z,44.40
2018-04-17T06:26:41.983Z,44.10
2018-04-17T06:29:10.416Z,43.90
2018-04-17T06:31:38.744Z,43.70
2018-04-17T06:34:07.116Z,45.30
2018-04-17T06:36:35.866Z,44.70
2018-04-17T06:39:04.134Z,44.70
2018-04-17T06:41:32.560Z,44.30
2018-04-17T06:44:00.871Z,43.90
2018-04-17T06:46:29.578Z,42.20
2018-04-17T06:48:58.003Z,42.20
2018-04-17T06:51:26.601Z,41.80
2018-04-17T06:53:54.883Z,41.00
2018-04-17T06:56:23.183Z,40.00
2018-04-17T06:58:52.029Z,39.30
2018-04-17T07:01:20.628Z,39.30
2018-04-17T07:03:48.991Z,38.50
2018-04-17T07:06:17.610Z,36.90
2018-04-17T07:08:45.917Z,35.30
2018-04-17T07:11:14.208Z,33.70
2018-04-17T07:13:42.577Z,32.00
2018-04-17T07:16:10.904Z,30.70
2018-04-17T07:18:39.264Z,29.60
2018-04-17T07:21:07.981Z,28.90
2018-04-17T07:23:36.293Z,28.10
2018-04-17T07:26:04.599Z,27.70
2018-04-17T07:28:32.881Z,27.00
2018-04-17T07:31:01.205Z,26.40
2018-04-17T07:33:29.515Z,26.10
2018-04-17T07:35:57.826Z,25.60
2018-04-17T07:38:26.159Z,25.40
2018-04-17T07:40:54.515Z,25.40
2018-04-17T07:43:22.840Z,25.20
2018-04-17T07:45:51.223Z,24.90
2018-04-17T07:48:31.444Z,24.70
2018-04-17T07:50:59.854Z,24.50
2018-04-17T07:53:28.232Z,24.20
2018-04-17T07:55:56.574Z,24.50
2018-04-17T07:58:25.212Z,24.40
2018-04-17T08:00:53.506Z,24.50
2018-04-17T08:03:22.259Z,24.60
2018-04-17T08:05:50.624Z,24.60
2018-04-17T08:08:18.944Z,24.70
2018-04-17T08:10:47.516Z,24.50
2018-04-17T08:13:15.847Z,24.50
2018-04-17T08:15:44.125Z,24.50
2018-04-17T08:18:12.649Z,24.30
2018-04-17T08:20:40.982Z,24.40
2018-04-17T08:23:09.277Z,24.40
2018-04-17T08:25:42.229Z,24.40
2018-04-17T08:28:10.523Z,24.50
2018-04-17T08:30:38.805Z,23.90
2018-04-17T08:33:07.130Z,23.90
2018-04-17T08:35:35.816Z,23.30
2018-04-17T08:38:04.089Z,23.30
2018-04-17T08:40:32.669Z,22.80
2018-04-17T08:43:00.946Z,21.90
2018-04-17T08:45:29.229Z,22.00
2018-04-17T08:47:58.466Z,21.20
2018-04-17T08:50:26.993Z,21.20
2018-04-17T08:52:55.278Z,20.90
2018-04-17T08:55:23.590Z,20.70
2018-04-17T08:57:51.883Z,20.10
2018-04-17T09:00:20.406Z,19.50
2018-04-17T09:02:48.768Z,19.70
2018-04-17T09:05:17.040Z,19.00
2018-04-17T09:07:45.329Z,18.70
2018-04-17T09:10:13.919Z,18.70
2018-04-17T09:12:42.281Z,19.70
2018-04-17T09:15:10.877Z,19.40
2018-04-17T09:17:39.242Z,19.80
2018-04-17T09:20:07.531Z,20.80
2018-04-17T09:22:35.808Z,21.30
2018-04-17T09:25:04.100Z,21.80
2018-04-17T09:27:32.731Z,22.00
2018-04-17T09:30:01.048Z,21.70
2018-04-17T09:32:29.347Z,22.40
2018-04-17T09:34:58.018Z,22.50
2018-04-17T09:37:26.297Z,22.50
2018-04-17T09:39:55.468Z,23.20
2018-04-17T09:42:23.788Z,23.10
2018-04-17T09:44:52.462Z,23.40
2018-04-17T09:47:21.181Z,23.40
2018-04-17T09:49:49.502Z,23.40
2018-04-17T09:52:17.817Z,23.20
2018-04-17T09:54:46.115Z,22.90
2018-04-17T09:57:14.387Z,23.00
2018-04-17T09:59:42.673Z,22.70
2018-04-17T10:02:10.965Z,22.40
2018-04-17T10:04:40.071Z,21.80
2018-04-17T10:07:08.671Z,21.80
2018-04-17T10:09:36.958Z,21.30
2018-04-17T10:12:05.258Z,21.10
2018-04-17T10:14:33.944Z,21.00
2018-04-17T10:17:02.682Z,20.80
2018-04-17T10:19:31.002Z,20.80
2018-04-17T10:21:59.678Z,20.50
2018-04-17T10:24:28.493Z,20.50
2018-04-17T10:26:56.758Z,20.50
2018-04-17T10:29:25.458Z,20.40
2018-04-17T10:31:53.731Z,20.40
2018-04-17T10:34:22.007Z,20.50
2018-04-17T10:36:50.289Z,20.20
2018-04-17T10:39:18.608Z,20.30
2018-04-17T10:41:46.976Z,20.10
2018-04-17T10:44:15.273Z,20.10
2018-04-17T10:46:43.545Z,20.20
2018-04-17T10:49:11.811Z,20.10
2018-04-17T10:51:40.601Z,19.60
2018-04-17T10:54:09.012Z,19.50
2018-04-17T10:56:37.342Z,19.90
2018-04-17T10:59:05.720Z,19.90
2018-04-17T11:01:34.053Z,19.60
2018-04-17T11:04:02.807Z,19.80
2018-04-17T11:06:31.089Z,19.70
2018-04-17T11:08:59.362Z,19.90
2018-04-17T11:11:27.647Z,19.60
2018-04-17T11:13:55.928Z,20.10
2018-04-17T11:16:24.905Z,19.60
2018-04-17T11:18:53.201Z,19.60
2018-04-17T11:21:21.920Z,19.40
2018-04-17T11:23:51.887Z,19.40
2018-04-17T11:26:20.783Z,19.10
2018-04-17T11:28:49.078Z,19.10
2018-04-17T11:31:17.753Z,19.30
2018-04-17T11:33:46.618Z,19.50
2018-04-17T11:36:14.888Z,19.50
2018-04-17T11:38:43.177Z,19.70
2018-04-17T11:41:11.493Z,19.80
2018-04-17T11:43:39.784Z,19.60
2018-04-17T11:46:08.100Z,19.70
2018-04-17T11:48:36.420Z,19.60
2018-04-17T11:51:04.723Z,20.00
2018-04-17T11:53:33.247Z,19.60
2018-04-17T11:56:01.540Z,19.40
2018-04-17T11:58:29.811Z,19.20
2018-04-17T12:00:58.118Z,18.70
2018-04-17T12:03:26.457Z,18.70
2018-04-17T12:05:54.737Z,18.50
2018-04-17T12:08:23.393Z,19.20
2018-04-17T12:10:51.769Z,19.60
2018-04-17T12:13:20.057Z,18.70
2018-04-17T12:15:48.431Z,19.20
2018-04-17T12:18:16.708Z,19.50
2018-04-17T12:20:45.009Z,19.30
2018-04-17T12:23:13.391Z,19.50
2018-04-17T12:25:41.793Z,19.50
2018-04-17T12:28:10.477Z,20.40
2018-04-17T12:30:39.213Z,20.60
2018-04-17T12:33:07.869Z,20.60
2018-04-17T12:35:36.632Z,20.70
2018-04-17T12:38:05.185Z,20.90
2018-04-17T12:40:33.483Z,21.00
2018-04-17T12:43:02.181Z,20.10
2018-04-17T12:45:30.854Z,19.90
2018-04-17T12:48:00.444Z,20.20
2018-04-17T12:50:28.711Z,20.20
2018-04-17T12:52:57.024Z,20.10
2018-04-17T12:55:25.323Z,19.50
2018-04-17T12:57:53.620Z,19.90
2018-04-17T13:00:22.645Z,20.90
2018-04-17T13:02:50.927Z,20.90
2018-04-17T13:05:19.209Z,20.80
2018-04-17T13:07:47.996Z,21.10
2018-04-17T13:10:16.223Z,21.10
2018-04-17T13:12:44.753Z,22.00
2018-04-17T13:15:13.442Z,20.70
2018-04-17T13:17:42.108Z,21.40
2018-04-17T13:20:10.390Z,21.40
2018-04-17T13:22:38.672Z,21.20
2018-04-17T13:25:07.351Z,19.50
2018-04-17T13:27:36.039Z,20.50
2018-04-17T13:30:04.333Z,20.50
2018-04-17T13:32:32.647Z,19.60
2018-04-17T13:35:01.167Z,19.90
2018-04-17T13:37:29.475Z,20.10
2018-04-17T13:39:58.144Z,21.10
2018-04-17T13:42:26.884Z,21.00
2018-04-17T13:44:55.160Z,21.00
2018-04-17T13:47:23.437Z,21.40
2018-04-17T13:49:52.053Z,22.00
2018-04-17T13:52:20.352Z,22.50
2018-04-17T13:54:49.030Z,22.50
2018-04-17T13:57:17.602Z,22.50
2018-04-17T13:59:46.293Z,21.80
2018-04-17T14:02:14.575Z,21.80
2018-04-17T14:04:43.267Z,22.60
2018-04-17T14:07:11.956Z,22.30
2018-04-17T14:09:40.699Z,22.90
2018-04-17T14:12:09.077Z,22.90
2018-04-17T14:14:37.457Z,22.50
2018-04-17T14:17:05.757Z,23.00
2018-04-17T14:19:34.060Z,22.70
2018-04-17T14:22:02.332Z,22.30
2018-04-17T14:24:31.410Z,22.20
2018-04-17T14:26:59.753Z,21.60
2018-04-17T14:29:28.033Z,22.70
2018-04-17T14:31:56.325Z,22.10
2018-04-17T14:34:24.904Z,22.10
2018-04-17T14:36:53.190Z,21.40
2018-04-17T14:39:21.452Z,21.90
2018-04-17T14:41:49.803Z,21.50
2018-04-17T14:44:18.077Z,21.80
2018-04-17T14:46:46.351Z,22.00
2018-04-17T14:49:14.645Z,22.10
2018-04-17T14:51:42.929Z,22.50
2018-04-17T14:54:11.212Z,22.50
2018-04-17T14:56:39.511Z,22.40
2018-04-17T14:59:07.779Z,22.20
2018-04-17T15:01:36.068Z,22.50
2018-04-17T15:04:04.745Z,22.60
2018-04-17T15:06:33.016Z,22.60
2018-04-17T15:09:01.346Z,22.50
2018-04-17T15:11:29.608Z,22.50
2018-04-17T15:13:57.911Z,22.70
2018-04-17T15:16:26.205Z,22.70
2018-04-17T15:18:54.525Z,22.50
2018-04-17T15:21:23.241Z,22.80
2018-04-17T15:23:51.554Z,22.80
2018-04-17T15:26:19.837Z,22.90
2018-04-17T15:28:48.137Z,23.10
2018-04-17T15:31:16.448Z,23.10
2018-04-17T15:33:44.715Z,23.00
2018-04-17T15:36:13.026Z,23.30
2018-04-17T15:38:41.324Z,23.60
2018-04-17T15:41:10.016Z,24.60
2018-04-17T15:43:38.778Z,24.60
2018-04-17T15:46:07.604Z,24.60
2018-04-17T15:48:36.386Z,23.90
2018-04-17T15:51:05.077Z,23.50
2018-04-17T15:53:33.754Z,23.90
2018-04-17T15:56:02.461Z,24.20
2018-04-17T15:58:30.772Z,24.20
2018-04-17T16:00:59.075Z,24.30
2018-04-17T16:03:27.404Z,24.60
2018-04-17T16:05:55.684Z,24.60
2018-04-17T16:08:23.990Z,24.50
2018-04-17T16:10:52.303Z,24.20
2018-04-17T16:13:20.609Z,24.40
2018-04-17T16:15:48.897Z,24.50
2018-04-17T16:18:17.184Z,23.60
2018-04-17T16:20:45.452Z,23.80
2018-04-17T16:23:13.765Z,23.60
2018-04-17T16:25:42.061Z,24.20
2018-04-17T16:28:10.728Z,24.50
2018-04-17T16:30:38.992Z,24.50
2018-04-17T16:33:07.345Z,24.50
2018-04-17T16:35:35.596Z,24.70
2018-04-17T16:38:03.915Z,24.90
2018-04-17T16:40:32.237Z,25.00
2018-04-17T16:43:00.535Z,25.10
2018-04-17T16:45:28.861Z,25.20
2018-04-17T16:47:57.180Z,25.20
2018-04-17T16:50:25.731Z,25.30
2018-04-17T16:52:54.029Z,25.70
2018-04-17T16:55:22.794Z,25.90
2018-04-17T16:57:51.116Z,25.90
2018-04-17T17:00:19.452Z,26.20
2018-04-17T17:02:47.785Z,26.10
2018-04-17T17:05:16.149Z,26.10
2018-04-17T17:07:44.446Z,26.30
2018-04-17T17:10:12.845Z,26.50
2018-04-17T17:12:41.121Z,26.00
2018-04-17T17:15:09.907Z,26.30
2018-04-17T17:17:38.210Z,26.30
2018-04-17T17:20:06.968Z,27.00
2018-04-17T17:22:35.326Z,27.00
2018-04-17T17:25:03.648Z,26.90
2018-04-17T17:27:31.987Z,27.00
2018-04-17T17:30:00.301Z,27.00
2018-04-17T17:32:29.795Z,27.40
2018-04-17T17:34:59.074Z,27.20
2018-04-17T17:37:27.421Z,27.70
2018-04-17T17:39:55.723Z,27.80
2018-04-17T17:42:24.031Z,27.80
2018-04-17T17:44:52.610Z,27.90
2018-04-17T17:47:20.925Z,27.70
2018-04-17T17:49:49.609Z,28.00
2018-04-17T17:52:17.948Z,28.00
2018-04-17T17:54:46.256Z,28.10
2018-04-17T17:57:14.946Z,28.30
2018-04-17T17:59:43.569Z,28.30
2018-04-17T18:02:11.856Z,28.70
2018-04-17T18:04:40.129Z,28.50
2018-04-17T18:07:08.475Z,28.50
2018-04-17T18:09:37.015Z,28.60
2018-04-17T18:12:05.320Z,29.20
2018-04-17T18:14:33.631Z,29.00
2018-04-17T18:17:01.943Z,29.00
2018-04-17T18:19:30.285Z,29.20
2018-04-17T18:21:58.610Z,29.50
2018-04-17T18:24:26.903Z,29.40
2018-04-17T18:26:55.575Z,29.50
2018-04-17T18:29:24.281Z,29.60
2018-04-17T18:31:52.556Z,29.60
2018-04-17T18:34:20.857Z,30.40
2018-04-17T18:36:49.156Z,29.70
2018-04-17T18:39:17.472Z,29.80
2018-04-17T18:41:46.173Z,30.70
2018-04-17T18:44:14.501Z,30.70
2018-04-17T18:46:42.774Z,30.40
2018-04-17T18:49:11.691Z,30.80
2018-04-17T18:51:39.986Z,30.60
2018-04-17T18:54:08.417Z,31.10
2018-04-17T18:56:36.825Z,30.70
2018-04-17T18:59:05.514Z,32.30
2018-04-17T19:01:35.606Z,32.30
2018-04-17T19:04:03.906Z,31.70
2018-04-17T19:06:32.663Z,31.00
2018-04-17T19:09:01.568Z,31.00
2018-04-17T19:11:30.331Z,31.60
2018-04-17T19:13:58.641Z,31.60
2018-04-17T19:16:26.968Z,32.60
2018-04-17T19:18:55.238Z,32.20
2018-04-17T19:21:24.163Z,32.50
2018-04-17T19:23:52.446Z,32.00
2018-04-17T19:26:20.712Z,32.20
2018-04-17T19:28:49.465Z,32.30
2018-04-17T19:31:18.765Z,32.30
2018-04-17T19:33:47.303Z,32.30
2018-04-17T19:36:15.604Z,33.10
2018-04-17T19:38:44.288Z,33.50
2018-04-17T19:41:12.614Z,33.50
2018-04-17T19:43:40.896Z,33.40
2018-04-17T19:46:09.178Z,33.20
2018-04-17T19:48:37.495Z,32.80
2018-04-17T19:51:05.817Z,33.80
2018-04-17T19:53:34.104Z,33.20
2018-04-17T19:56:02.572Z,33.40
2018-04-17T19:58:30.870Z,33.50
2018-04-17T20:00:59.204Z,33.70
2018-04-17T20:03:27.518Z,33.50
2018-04-17T20:05:55.813Z,33.80
2018-04-17T20:08:24.088Z,33.40
2018-04-17T20:10:52.469Z,33.80
2018-04-17T20:13:20.744Z,33.50
2018-04-17T20:15:49.067Z,33.20
2018-04-17T20:18:17.372Z,34.00
2018-04-17T20:20:45.659Z,33.50
2018-04-17T20:23:13.986Z,33.70
2018-04-17T20:25:42.271Z,33.40
2018-04-17T20:28:10.540Z,34.00
2018-04-17T20:30:39.223Z,34.00
2018-04-17T20:33:07.905Z,33.50
2018-04-17T20:35:36.620Z,34.20
2018-04-17T20:38:04.960Z,34.20
2018-04-17T20:40:33.697Z,33.50
2018-04-17T20:43:02.013Z,33.50
2018-04-17T20:45:30.301Z,34.40
2018-04-17T20:47:58.976Z,35.90
2018-04-17T20:50:27.273Z,35.90
2018-04-17T20:52:55.954Z,36.20
2018-04-17T20:55:24.699Z,35.90
2018-04-17T20:57:53.187Z,35.90
2018-04-17T21:00:21.839Z,35.70
2018-04-17T21:02:50.283Z,35.40
2018-04-17T21:05:19.020Z,35.10
2018-04-17T21:07:47.313Z,35.10
2018-04-17T21:10:15.635Z,34.80
2018-04-17T21:12:44.331Z,34.70
2018-04-17T21:15:12.784Z,34.70
2018-04-17T21:17:41.479Z,34.40
2018-04-17T21:20:10.274Z,34.20
2018-04-17T21:22:38.958Z,34.10
2018-04-17T21:25:07.259Z,34.10
2018-04-17T21:27:35.582Z,34.00
2018-04-17T21:30:03.870Z,34.00
2018-04-17T21:32:32.631Z,33.80
2018-04-17T21:35:01.003Z,33.70
2018-04-17T21:37:29.286Z,33.80
2018-04-17T21:39:57.575Z,33.20
2018-04-17T21:42:25.890Z,32.60
2018-04-17T21:44:58.153Z,33.10
2018-04-17T21:47:27.109Z,33.10
2018-04-17T21:50:00.897Z,32.80
2018-04-17T21:52:32.025Z,32.80
2018-04-17T21:55:00.361Z,32.80
2018-04-17T21:57:29.099Z,32.60
2018-04-17T21:59:57.400Z,32.60
2018-04-17T22:02:26.185Z,33.20
2018-04-17T22:04:55.032Z,32.80
2018-04-17T22:07:24.291Z,32.80
2018-04-17T22:09:53.007Z,33.40
2018-04-17T22:12:21.338Z,33.40
2018-04-17T22:14:49.640Z,33.10
2018-04-17T22:17:18.324Z,33.10
2018-04-17T22:19:47.002Z,32.80
2018-04-17T22:22:15.346Z,32.80
2018-04-17T22:24:43.666Z,32.60
2018-04-17T22:27:12.428Z,32.60
2018-04-17T22:29:40.734Z,32.60
2018-04-17T22:32:09.427Z,32.60
2018-04-17T22:34:38.102Z,32.80
2018-04-17T22:37:06.819Z,32.80
2018-04-17T22:39:35.090Z,32.80
2018-04-17T22:42:03.361Z,32.80
2018-04-17T22:44:31.699Z,32.80
2018-04-17T22:46:59.974Z,32.60
2018-04-17T22:49:28.250Z,32.90
2018-04-17T22:51:57.118Z,32.90
2018-04-17T22:54:25.417Z,32.80
2018-04-17T22:56:53.861Z,32.90
2018-04-17T22:59:22.138Z,32.90
2018-04-17T23:01:50.583Z,33.10
2018-04-17T23:04:19.305Z,33.10
2018-04-17T23:06:47.594Z,33.10
2018-04-17T23:09:16.527Z,33.10
2018-04-17T23:11:45.058Z,33.20
2018-04-17T23:14:13.375Z,33.20
2018-04-17T23:16:41.727Z,33.20
2018-04-17T23:19:10.030Z,33.40
2018-04-17T23:21:38.708Z,33.20
2018-04-17T23:24:06.976Z,33.20
2018-04-17T23:26:35.265Z,33.20
2018-04-17T23:29:03.940Z,33.20
2018-04-17T23:31:32.237Z,33.20
2018-04-17T23:34:00.928Z,33.20
2018-04-17T23:36:29.605Z,33.20
2018-04-17T23:38:58.403Z,33.20
2018-04-17T23:41:27.109Z,33.10
2018-04-17T23:46:30.549Z,32.90
2018-04-17T23:48:58.870Z,32.90
2018-04-17T23:51:27.140Z,32.90
2018-04-17T23:53:55.446Z,32.90
2018-04-17T23:56:23.730Z,32.90
2018-04-17T23:58:52.008Z,33.10
